Time;durP1;ratioP1;P1;durP2;ratioP2;P2;SDS_P1;SDS_P2;PMS_P1;PMS_P2;Temp;Humidity;BMP_temperature;BMP_pressure;BME280_temperature;BME280_humidity;BME280_pressure;Samples;Min_cycle;Max_cycle;Signal;HPM_P1;HPM_P2
2023/08/03 01:05:38;;;;;;;6.28;1.70;;;;;;;19.83;69.66;100563.50;10078213;28;97069;-80
2023/08/03 01:18:14;;;;;;;4.53;1.20;;;;;;;19.58;70.12;100584.91;9975449;28;97080;-81
2023/08/03 01:24:09;;;;;;;5.72;1.40;;;;;;;19.52;70.12;100589.84;10084840;28;96888;-80
2023/08/03 02:07:41;;;;;;;4.38;1.50;;;;;;;18.98;70.94;100607.84;9938808;29;98053;-80
2023/08/03 02:32:21;;;;;;;;;;;;;;;;;;;;;
2023/08/03 02:44:39;;;;;;;;;;;;;;;;;;;;;
2023/08/03 03:02:00;;;;;;;3.35;1.55;;;;;;;18.58;71.68;100607.03;9933497;29;96916;-80
2023/08/03 03:07:55;;;;;;;;;;;;;;;;;;;;;
2023/08/03 03:13:30;;;;;;;2.53;1.35;;;;;;;18.52;71.41;100618.13;10009070;28;97923;-79
2023/08/03 03:25:15;;;;;;;2.08;1.02;;;;;;;18.31;72.03;100595.50;10013224;28;96804;-79
2023/08/03 03:30:46;;;;;;;;;;;;;;;;;;;;;
2023/08/03 03:36:08;;;;;;;3.60;1.15;;;;;;;18.00;73.10;100606.44;10051255;29;96948;-79
2023/08/03 03:41:24;;;;;;;3.50;1.30;;;;;;;17.99;72.69;100602.94;10052821;29;96891;-79
2023/08/03 03:46:39;;;;;;;3.75;1.50;;;;;;;18.03;72.62;100596.47;10052569;28;97010;-79
2023/08/03 03:52:18;;;;;;;4.93;1.40;;;;;;;17.91;72.54;100599.03;10051892;29;97139;-79
2023/08/03 03:57:56;;;;;;;4.43;1.50;;;;;;;17.95;72.80;100603.22;10213915;28;96760;-79
2023/08/03 04:03:15;;;;;;;4.55;1.60;;;;;;;18.06;72.28;100617.56;10214450;28;96890;-80
2023/08/03 04:08:47;;;;;;;5.60;1.70;;;;;;;17.96;72.67;100624.44;10214882;28;96895;-79
2023/08/03 04:14:19;;;;;;;;;;;;;;;;;;;;;
2023/08/03 04:19:57;;;;;;;3.17;1.05;;;;;;;17.75;72.86;100647.09;10253669;28;97755;-79
2023/08/03 04:25:19;;;;;;;5.93;1.38;;;;;;;17.83;72.88;100634.13;10254524;28;96793;-79
2023/08/03 04:30:29;;;;;;;4.30;1.38;;;;;;;17.83;72.82;100644.78;10254447;28;99436;-79
2023/08/03 04:41:20;;;;;;;;;;;;;;;;;;;;;
2023/08/03 04:46:39;;;;;;;4.32;1.20;;;;;;;17.72;73.11;100651.75;10253222;28;96593;-79
2023/08/03 04:52:16;;;;;;;4.25;1.60;;;;;;;17.88;72.47;100665.81;10252145;28;96953;-79
2023/08/03 04:57:35;;;;;;;3.03;1.48;;;;;;;17.96;72.49;100666.19;10240571;28;97893;-79
2023/08/03 05:03:06;;;;;;;3.63;1.90;;;;;;;17.96;72.76;100653.72;10246226;28;97701;-79
2023/08/03 05:14:25;;;;;;;4.25;1.92;;;;;;;17.91;73.69;100660.28;10246940;28;96907;-79
2023/08/03 05:20:05;;;;;;;;;;;;;;;;;;;;;
2023/08/03 05:25:18;;;;;;;4.07;1.95;;;;;;;17.99;73.03;100634.88;10289217;28;97280;-79
2023/08/03 05:36:43;;;;;;;4.35;1.88;;;;;;;17.97;73.94;100652.75;10253382;28;96906;-79
2023/08/03 05:42:25;;;;;;;5.45;2.30;;;;;;;17.95;73.47;100659.97;10253910;28;97083;-79
2023/08/03 05:48:01;;;;;;;;;;;;;;;;;;;;;
2023/08/03 06:05:39;;;;;;;4.00;1.75;;;;;;;17.70;73.82;100694.44;10218587;28;97866;-79
2023/08/03 06:11:16;;;;;;;2.85;1.70;;;;;;;17.82;73.74;100701.66;10218776;28;96694;-79
2023/08/03 06:17:00;;;;;;;2.97;1.80;;;;;;;17.82;73.74;100712.31;10259657;28;97027;-79
2023/08/03 06:22:37;;;;;;;5.10;2.03;;;;;;;18.14;73.28;100713.78;10217925;28;96836;-79
2023/08/03 06:34:08;;;;;;;3.28;2.00;;;;;;;18.18;72.65;100725.97;10218167;28;97410;-79
2023/08/03 06:39:20;;;;;;;5.35;2.08;;;;;;;18.20;73.00;100739.19;10217809;28;97627;-79
2023/08/03 06:44:56;;;;;;;2.78;1.95;;;;;;;18.34;73.09;100744.50;10216690;28;96702;-79
2023/08/03 06:50:13;;;;;;;3.15;1.73;;;;;;;18.18;73.17;100749.94;10218073;28;98062;-79
2023/08/03 06:55:24;;;;;;;5.15;2.03;;;;;;;18.28;73.18;100747.53;10216945;28;96688;-79
2023/08/03 07:01:14;;;;;;;;;;;;;;;;;;;;;
2023/08/03 07:17:51;;;;;;;4.55;2.75;;;;;;;18.98;71.69;100759.88;10239928;28;97023;-79
2023/08/03 07:23:07;;;;;;;3.75;2.72;;;;;;;19.04;71.59;100772.81;10244107;28;97757;-79
2023/08/03 07:34:40;;;;;;;4.47;2.80;;;;;;;19.56;70.42;100747.06;10233893;28;97115;-80
2023/08/03 07:40:30;;;;;;;5.78;3.10;;;;;;;19.68;69.95;100751.53;10249661;28;96624;-79
2023/08/03 07:51:50;;;;;;;;;;;;;;;;;;;;;
2023/08/03 07:57:25;;;;;;;5.10;2.67;;;;;;;19.91;69.41;100774.81;10207401;28;97836;-79
2023/08/03 08:03:29;;;;;;;6.45;2.80;;;;;;;19.86;69.50;100771.63;10248392;28;97618;-79
2023/08/03 08:09:09;;;;;;;5.22;2.40;;;;;;;19.98;68.67;100767.22;10249052;28;97822;-80
2023/08/03 08:20:50;;;;;;;6.72;3.00;;;;;;;19.82;68.83;100764.75;10101653;28;98324;-80
2023/08/03 08:26:25;;;;;;;5.78;2.53;;;;;;;20.13;68.48;100763.50;10208766;28;96547;-80
2023/08/03 08:32:03;;;;;;;7.95;2.67;;;;;;;20.58;67.46;100780.75;10226690;28;97241;-80
2023/08/03 08:37:51;;;;;;;4.78;2.20;;;;;;;20.49;67.85;100781.41;10201431;28;96763;-80
2023/08/03 08:43:46;;;;;;;3.53;2.13;;;;;;;20.92;66.70;100780.00;10208819;28;97256;-80
2023/08/03 08:49:27;;;;;;;;;;;;;;;;;;;;;
2023/08/03 08:55:05;;;;;;;4.70;2.38;;;;;;;21.29;65.55;100763.78;10208473;28;96710;-80
2023/08/03 09:00:47;;;;;;;4.30;1.67;;;;;;;21.36;64.28;100759.66;10204439;28;97983;-80
2023/08/03 09:06:10;;;;;;;4.03;1.70;;;;;;;21.75;64.12;100769.16;10122684;28;97360;-80
2023/08/03 09:11:56;;;;;;;3.45;1.60;;;;;;;21.59;61.34;100771.31;10244680;28;97740;-80
2023/08/03 09:23:43;;;;;;;;;;;;;;;;;;;;;
2023/08/03 09:29:32;;;;;;;3.67;1.23;;;;;;;22.66;58.18;100769.94;10132637;28;96975;-80
2023/08/03 09:41:45;;;;;;;;;;;;;;;;;;;;;
2023/08/03 09:54:04;;;;;;;0.93;0.55;;;;;;;23.58;50.50;100766.59;10009738;28;97109;-80
2023/08/03 10:00:00;;;;;;;;;;;;;;;;;;;;;
2023/08/03 10:36:24;;;;;;;1.42;0.60;;;;;;;24.33;46.64;100779.78;10088023;28;97185;-80
2023/08/03 10:42:25;;;;;;;2.20;0.98;;;;;;;24.27;47.38;100766.88;10010313;28;96955;-80
2023/08/03 10:48:21;;;;;;;2.08;0.98;;;;;;;24.34;47.19;100763.50;10076520;28;97216;-80
2023/08/03 10:54:32;;;;;;;2.45;1.20;;;;;;;23.98;47.51;100739.81;10005507;29;98365;-79
2023/08/03 11:05:56;;;;;;;;;;;;;;;;;;;;;
2023/08/03 11:18:12;;;;;;;1.48;0.90;;;;;;;24.89;45.85;100734.34;10124190;28;97176;-80
2023/08/03 11:23:47;;;;;;;2.33;1.02;;;;;;;25.22;45.72;100726.75;10249676;28;96859;-80
2023/08/03 11:48:05;;;;;;;;;;;;;;;;;;;;;
2023/08/03 11:59:48;;;;;;;2.72;0.90;;;;;;;26.13;43.49;100723.44;10158051;28;96880;-80
2023/08/03 12:05:07;;;;;;;2.33;0.80;;;;;;;25.90;44.64;100704.94;10201238;28;97393;-80
2023/08/03 12:10:24;;;;;;;2.00;1.00;;;;;;;25.86;43.65;100695.44;10208683;28;96810;-80
2023/08/03 12:15:45;;;;;;;2.10;0.85;;;;;;;26.21;43.60;100685.78;10230078;28;96931;-80
2023/08/03 12:20:55;;;;;;;1.80;0.85;;;;;;;25.98;44.33;100679.06;10249312;28;97056;-80
2023/08/03 12:26:20;;;;;;;;;;;;;;;;;;;;;
2023/08/03 12:31:40;;;;;;;;;;;;;;;26.46;44.41;100694.06;10219487;28;97739;-80
2023/08/03 12:37:13;;;;;;;1.30;0.80;;;;;;;26.30;43.27;100720.81;10208461;28;98341;-80
2023/08/03 12:42:28;;;;;;;2.38;0.90;;;;;;;26.99;43.53;100703.03;10168971;28;96867;-80
2023/08/03 12:47:41;;;;;;;1.50;0.77;;;;;;;27.48;42.16;100693.53;10207758;28;96690;-80
2023/08/03 12:53:30;;;;;;;;;;;;;;;;;;;;;
2023/08/03 12:58:43;;;;;;;1.10;0.90;;;;;;;27.61;42.04;100675.06;10208394;28;97162;-80
2023/08/03 13:04:00;;;;;;;1.67;0.80;;;;;;;28.05;41.48;100687.50;10207549;28;97785;-80
2023/08/03 13:09:15;;;;;;;1.95;1.05;;;;;;;27.70;40.99;100693.03;10208890;28;96605;-80
2023/08/03 13:14:39;;;;;;;3.33;0.80;;;;;;;27.28;41.65;100694.75;10208121;28;96811;-80
2023/08/03 13:19:55;;;;;;;3.13;0.90;;;;;;;26.95;41.53;100692.72;10207957;28;96791;-80
2023/08/03 13:25:15;;;;;;;1.02;0.57;;;;;;;27.42;40.19;100674.41;10170555;28;97457;-80
2023/08/03 13:30:20;;;;;;;2.08;0.68;;;;;;;27.13;41.13;100677.38;10194811;28;96844;-80
2023/08/03 13:35:25;;;;;;;3.08;0.93;;;;;;;27.42;40.35;100660.88;10214486;28;96662;-80
2023/08/03 13:40:31;;;;;;;1.52;0.85;;;;;;;27.56;39.44;100644.09;10214866;28;96769;-80
2023/08/03 13:45:35;;;;;;;2.00;0.70;;;;;;;27.21;40.71;100654.97;10214072;28;96682;-79
2023/08/03 13:50:40;;;;;;;2.42;0.82;;;;;;;27.38;40.05;100627.06;10213919;28;97866;-79
2023/08/03 13:55:46;;;;;;;2.53;0.90;;;;;;;27.77;39.57;100628.34;10214683;28;97095;-80
2023/08/03 14:00:50;;;;;;;1.38;0.80;;;;;;;28.26;39.40;100638.34;10214382;28;96810;-80
2023/08/03 14:05:54;;;;;;;2.75;0.90;;;;;;;27.97;39.21;100648.72;10213224;28;97173;-80
2023/08/03 14:11:03;;;;;;;2.17;0.70;;;;;;;28.27;38.32;100648.19;10210766;28;96821;-80
2023/08/03 14:16:10;;;;;;;2.70;0.85;;;;;;;28.15;38.78;100646.78;10216392;28;96778;-80
2023/08/03 14:21:16;;;;;;;1.15;0.63;;;;;;;28.24;38.70;100634.97;10209707;28;97764;-80
2023/08/03 14:26:41;;;;;;;3.37;0.90;;;;;;;28.30;38.48;100626.22;10213430;28;97493;-80
2023/08/03 14:31:44;;;;;;;2.88;0.85;;;;;;;27.88;38.64;100614.53;10227545;28;96843;-80
2023/08/03 14:36:50;;;;;;;2.35;0.70;;;;;;;28.07;37.88;100607.00;10211007;28;96549;-79
2023/08/03 14:42:01;;;;;;;3.50;1.17;;;;;;;28.56;37.10;100605.31;10212413;28;96916;-79
2023/08/03 14:47:08;;;;;;;1.63;0.73;;;;;;;28.78;37.67;100598.38;10250969;22;97808;-79
2023/08/03 14:52:15;;;;;;;2.53;1.13;;;;;;;28.75;37.20;100596.00;10362316;28;96869;-79
2023/08/03 14:57:23;;;;;;;1.73;0.90;;;;;;;28.90;37.00;100597.03;10343399;28;96688;-79
2023/08/03 15:02:28;;;;;;;2.00;0.75;;;;;;;28.91;37.82;100599.59;10333745;28;96833;-79
2023/08/03 15:07:36;;;;;;;2.60;1.00;;;;;;;28.64;37.30;100596.31;10313002;28;96776;-79
2023/08/03 15:12:42;;;;;;;2.03;1.08;;;;;;;28.38;37.18;100573.94;10375002;28;96606;-79
2023/08/03 15:17:45;;;;;;;2.53;1.15;;;;;;;28.29;36.97;100592.03;10374258;28;96784;-79
2023/08/03 15:22:50;;;;;;;2.75;1.08;;;;;;;28.63;36.30;100583.81;10325424;28;97330;-79
2023/08/03 15:27:55;;;;;;;3.88;0.90;;;;;;;28.31;36.22;100572.94;10291808;28;96745;-79
2023/08/03 15:33:02;;;;;;;3.33;1.48;;;;;;;28.76;36.58;100581.44;10291760;28;96834;-79
2023/08/03 15:38:08;;;;;;;1.70;0.77;;;;;;;28.63;36.20;100595.50;10288145;28;96777;-79
2023/08/03 15:43:14;;;;;;;3.30;1.10;;;;;;;28.43;35.72;100591.38;10294259;28;96787;-79
2023/08/03 15:48:20;;;;;;;2.00;1.00;;;;;;;28.57;36.38;100571.78;10343200;28;96647;-79
2023/08/03 15:53:43;;;;;;;1.17;0.70;;;;;;;28.95;36.03;100586.53;10373308;28;97617;-79
2023/08/03 15:58:58;;;;;;;2.13;0.77;;;;;;;28.42;36.29;100568.03;10372298;28;96664;-79
2023/08/03 16:04:01;;;;;;;2.22;0.82;;;;;;;28.50;37.33;100561.81;10372585;28;98383;-78
2023/08/03 16:09:05;;;;;;;2.55;1.10;;;;;;;28.15;37.67;100576.44;10372921;28;96839;-79
2023/08/03 16:14:09;;;;;;;2.05;0.90;;;;;;;27.71;37.60;100570.34;10371958;28;97586;-79
2023/08/03 16:19:16;;;;;;;3.00;1.00;;;;;;;27.64;37.75;100565.69;10372431;28;96726;-79
2023/08/03 16:24:20;;;;;;;2.63;1.00;;;;;;;27.45;38.22;100574.91;10372489;28;97132;-79
2023/08/03 16:29:25;;;;;;;2.20;1.00;;;;;;;27.34;38.79;100575.16;10371689;28;97583;-79
2023/08/03 16:34:32;;;;;;;1.20;0.90;;;;;;;27.22;39.21;100583.69;10373246;28;97105;-78
2023/08/03 16:39:35;;;;;;;2.38;1.05;;;;;;;27.54;39.47;100576.66;10372315;28;96678;-79
2023/08/03 16:44:40;;;;;;;2.58;0.90;;;;;;;27.48;39.39;100565.59;10371476;28;98363;-79
2023/08/03 16:49:43;;;;;;;2.33;1.02;;;;;;;27.39;39.32;100580.13;10330455;28;97678;-79
2023/08/03 16:54:47;;;;;;;2.50;1.05;;;;;;;27.32;39.73;100582.59;10330342;28;96588;-79
2023/08/03 16:59:51;;;;;;;3.55;0.90;;;;;;;27.43;40.12;100578.75;10329435;28;96551;-79
2023/08/03 17:04:55;;;;;;;2.30;0.95;;;;;;;27.22;40.63;100578.28;10330759;28;97270;-79
2023/08/03 17:09:58;;;;;;;4.65;0.98;;;;;;;27.11;40.08;100576.72;10329979;28;96673;-79
2023/08/03 17:15:03;;;;;;;4.47;1.42;;;;;;;27.08;40.12;100581.59;10329888;28;96622;-79
2023/08/03 17:20:08;;;;;;;2.47;1.10;;;;;;;26.94;40.48;100602.72;10330145;28;96791;-79
2023/08/03 17:25:11;;;;;;;2.20;0.88;;;;;;;26.91;40.41;100594.94;10330648;28;96609;-79
2023/08/03 17:30:16;;;;;;;2.85;1.50;;;;;;;26.93;40.38;100592.06;10353229;28;97310;-79
2023/08/03 17:35:19;;;;;;;2.72;1.05;;;;;;;26.84;40.72;100585.75;10370509;28;97519;-79
2023/08/03 17:40:22;;;;;;;;;;;;;;;26.65;40.59;100585.06;10333070;28;96872;-79
2023/08/03 17:45:27;;;;;;;2.17;1.20;;;;;;;26.81;40.82;100580.69;10350050;28;97004;-79
2023/08/03 17:50:30;;;;;;;3.05;1.00;;;;;;;26.96;40.04;100597.16;10370154;28;96895;-79
2023/08/03 17:55:34;;;;;;;1.60;0.67;;;;;;;26.95;40.68;100596.31;10347923;28;96863;-79
2023/08/03 18:00:38;;;;;;;3.57;1.17;;;;;;;26.72;40.90;100587.00;10328761;28;96725;-79
2023/08/03 18:05:43;;;;;;;3.92;1.05;;;;;;;26.64;40.59;100589.66;10328518;28;96754;-79
2023/08/03 18:10:52;;;;;;;4.35;1.08;;;;;;;26.55;40.78;100593.25;10333014;28;96859;-79
2023/08/03 18:16:00;;;;;;;2.22;0.80;;;;;;;26.66;41.23;100595.72;10336332;28;97472;-79
2023/08/03 18:21:05;;;;;;;2.38;0.93;;;;;;;26.40;41.43;100608.28;10335028;28;96847;-79
2023/08/03 18:26:09;;;;;;;1.90;0.80;;;;;;;26.21;41.60;100604.84;10334822;28;96826;-79
2023/08/03 18:31:14;;;;;;;3.40;0.90;;;;;;;26.15;41.63;100603.59;10334825;28;96660;-79
2023/08/03 18:36:19;;;;;;;2.00;0.80;;;;;;;26.11;41.44;100612.97;10334803;28;96843;-79
2023/08/03 18:41:24;;;;;;;1.92;0.70;;;;;;;25.93;41.52;100618.31;10334890;28;96698;-79
2023/08/03 18:46:29;;;;;;;2.40;0.88;;;;;;;25.92;42.18;100631.13;10342261;28;96973;-79
2023/08/03 18:51:33;;;;;;;2.08;0.70;;;;;;;25.78;42.71;100641.38;10334348;28;96882;-79
2023/08/03 18:56:36;;;;;;;2.23;0.83;;;;;;;25.59;43.17;100637.88;10334446;28;96800;-79
2023/08/03 19:01:41;;;;;;;1.73;1.10;;;;;;;25.59;43.42;100640.56;10334734;28;97991;-79
2023/08/03 19:06:47;;;;;;;2.45;0.90;;;;;;;25.43;44.05;100648.44;10334434;28;97359;-79
2023/08/03 19:11:51;;;;;;;1.85;0.93;;;;;;;25.22;44.08;100664.78;10333761;28;96697;-79
2023/08/03 19:16:55;;;;;;;3.33;0.97;;;;;;;25.05;44.53;100661.97;10333245;28;97045;-79
2023/08/03 19:21:59;;;;;;;2.92;1.00;;;;;;;24.96;44.79;100665.47;10331818;28;96758;-79
2023/08/03 19:27:02;;;;;;;2.63;1.10;;;;;;;24.79;44.95;100669.72;10334504;28;98645;-79
2023/08/03 19:32:08;;;;;;;4.37;1.37;;;;;;;24.75;45.29;100684.44;10374356;28;96828;-79
2023/08/03 19:37:12;;;;;;;2.88;0.90;;;;;;;24.75;45.14;100688.00;10373380;28;96985;-79
2023/08/03 19:42:16;;;;;;;3.33;1.00;;;;;;;24.62;45.73;100698.16;10373946;28;96742;-79
2023/08/03 19:47:24;;;;;;;2.85;0.85;;;;;;;24.36;46.61;100686.22;10373638;28;97755;-79
2023/08/03 19:52:27;;;;;;;2.58;0.90;;;;;;;24.30;47.02;100685.91;10373043;28;97366;-79
2023/08/03 19:57:51;;;;;;;2.00;1.05;;;;;;;24.19;47.31;100697.59;10374349;28;96597;-79
2023/08/03 20:02:59;;;;;;;3.90;0.80;;;;;;;23.95;47.51;100705.16;10366720;28;96690;-78
2023/08/03 20:08:05;;;;;;;3.45;1.17;;;;;;;23.89;47.53;100737.09;10366797;28;97101;-79
2023/08/03 20:13:11;;;;;;;3.92;1.40;;;;;;;23.93;47.26;100739.38;10370052;28;96598;-78
2023/08/03 20:18:16;;;;;;;2.55;0.98;;;;;;;23.92;47.41;100742.19;10372201;28;96842;-78
2023/08/03 20:23:22;;;;;;;3.92;1.35;;;;;;;23.73;47.79;100743.78;10368828;28;97538;-79
2023/08/03 20:28:25;;;;;;;3.57;1.10;;;;;;;23.56;48.12;100755.13;10363908;28;96915;-79
2023/08/03 20:33:29;;;;;;;3.10;1.30;;;;;;;23.43;48.61;100772.38;10372263;28;96742;-79
2023/08/03 20:38:33;;;;;;;3.05;1.17;;;;;;;23.06;49.88;100777.28;10372107;28;96750;-78
2023/08/03 20:43:36;;;;;;;3.40;1.47;;;;;;;22.80;50.68;100783.13;10371639;28;96863;-78
2023/08/03 20:48:42;;;;;;;3.95;1.42;;;;;;;22.85;50.59;100794.31;10372157;28;97312;-78
2023/08/03 20:53:45;;;;;;;2.75;1.42;;;;;;;22.83;50.71;100809.69;10371271;28;97888;-78
2023/08/03 20:58:49;;;;;;;2.85;1.20;;;;;;;22.81;50.58;100804.47;10371553;28;96740;-79
2023/08/03 21:03:54;;;;;;;3.67;1.07;;;;;;;22.82;50.24;100818.75;10337590;28;96571;-79
2023/08/03 21:08:57;;;;;;;5.35;1.27;;;;;;;22.77;50.33;100821.75;10330019;28;96724;-78
2023/08/03 21:14:00;;;;;;;3.67;1.27;;;;;;;22.80;50.36;100820.69;10329793;28;96701;-79
2023/08/03 21:19:06;;;;;;;1.63;0.82;;;;;;;22.54;51.37;100823.59;10329826;28;96790;-79
2023/08/03 21:24:12;;;;;;;2.55;0.98;;;;;;;22.51;51.68;100828.34;10329691;28;96883;-79
2023/08/03 21:29:15;;;;;;;3.00;1.20;;;;;;;22.51;51.92;100834.56;10349344;28;96726;-79
2023/08/03 21:34:20;;;;;;;3.78;1.20;;;;;;;22.30;52.33;100838.09;10367271;28;96841;-79
2023/08/03 21:39:23;;;;;;;3.92;1.10;;;;;;;22.27;52.09;100844.56;10330282;28;97542;-79
2023/08/03 21:44:27;;;;;;;1.50;0.80;;;;;;;22.26;52.15;100850.88;10331638;28;98066;-79
2023/08/03 21:49:34;;;;;;;;;;;;;;;22.25;52.76;100849.19;10336401;28;96642;-79
2023/08/03 21:54:38;;;;;;;2.38;0.93;;;;;;;22.06;52.57;100848.06;10336380;28;96764;-79
2023/08/03 21:59:42;;;;;;;4.32;1.27;;;;;;;21.87;53.07;100847.72;10336245;28;97794;-79
2023/08/03 22:04:47;;;;;;;2.17;1.10;;;;;;;21.90;53.03;100860.91;10335693;28;96711;-78
2023/08/03 22:09:50;;;;;;;2.70;1.23;;;;;;;21.82;53.69;100860.63;10336062;28;96895;-79
2023/08/03 22:14:53;;;;;;;3.50;1.20;;;;;;;21.59;54.31;100875.75;10335381;28;96825;-79
2023/08/03 22:19:58;;;;;;;2.95;1.10;;;;;;;21.45;54.20;100865.22;10334962;28;96748;-79
2023/08/03 22:25:01;;;;;;;3.45;1.30;;;;;;;21.54;54.15;100869.06;10335746;28;96664;-79
2023/08/03 22:30:05;;;;;;;2.75;0.93;;;;;;;21.53;54.13;100870.88;10362332;28;96717;-79
2023/08/03 22:35:11;;;;;;;4.45;1.38;;;;;;;21.23;54.79;100882.03;10376098;28;96749;-79
2023/08/03 22:40:14;;;;;;;1.77;1.08;;;;;;;21.17;54.94;100881.66;10376110;28;96934;-79
2023/08/03 22:45:17;;;;;;;3.28;1.20;;;;;;;21.09;55.28;100889.31;10374344;28;96656;-79
2023/08/03 22:50:22;;;;;;;1.98;0.90;;;;;;;21.19;54.83;100885.91;10375281;28;96796;-79
2023/08/03 22:55:26;;;;;;;4.38;1.17;;;;;;;21.14;55.45;100898.72;10374233;28;96685;-79
2023/08/03 23:00:29;;;;;;;3.35;1.30;;;;;;;20.82;56.60;100896.69;10374476;28;96835;-79
2023/08/03 23:05:35;;;;;;;2.83;1.30;;;;;;;20.98;55.83;100903.47;10375396;28;96735;-79
2023/08/03 23:10:38;;;;;;;4.45;1.05;;;;;;;20.90;56.12;100903.19;10374827;28;96692;-79
2023/08/03 23:15:41;;;;;;;3.83;1.42;;;;;;;20.93;56.53;100904.81;10374914;28;97188;-78
2023/08/03 23:20:46;;;;;;;2.22;1.17;;;;;;;20.93;56.22;100905.63;10374323;28;96730;-78
2023/08/03 23:25:49;;;;;;;1.92;0.93;;;;;;;20.67;56.71;100911.97;10374231;28;96868;-78
2023/08/03 23:30:52;;;;;;;3.90;1.13;;;;;;;20.78;56.59;100913.91;10374285;28;96575;-78
2023/08/03 23:35:57;;;;;;;2.22;1.10;;;;;;;20.78;56.37;100921.94;10348064;28;97134;-78
2023/08/03 23:41:00;;;;;;;4.05;1.38;;;;;;;20.64;56.63;100935.41;10332497;28;97246;-79
2023/08/03 23:46:04;;;;;;;3.83;1.30;;;;;;;20.39;57.11;100928.28;10331916;28;97193;-79
2023/08/03 23:51:08;;;;;;;2.33;1.13;;;;;;;20.34;57.50;100928.56;10333125;28;97858;-78
2023/08/03 23:56:12;;;;;;;3.00;1.00;;;;;;;20.32;56.83;100930.50;10333044;28;97040;-79
